createdAt,value
2017-02-23T00:00:13.959Z,956.38
2017-02-23T00:01:23.166Z,956.42
2017-02-23T00:02:32.348Z,956.41
2017-02-23T00:03:42.281Z,956.41
2017-02-23T00:04:51.401Z,956.52
2017-02-23T00:06:02.105Z,956.38
2017-02-23T00:07:11.278Z,956.47
2017-02-23T00:08:20.851Z,956.44
2017-02-23T00:09:31.179Z,956.4
2017-02-23T00:10:41.122Z,956.46
2017-02-23T00:11:50.325Z,956.36
2017-02-23T00:12:59.501Z,956.41
2017-02-23T00:14:08.679Z,956.41
2017-02-23T00:15:17.861Z,956.42
2017-02-23T00:16:26.673Z,956.46
2017-02-23T00:17:36.242Z,956.43
2017-02-23T00:18:45.057Z,956.49
2017-02-23T00:19:54.589Z,956.48
2017-02-23T00:21:04.148Z,956.45
2017-02-23T00:22:13.922Z,956.47
2017-02-23T00:23:23.119Z,956.39
2017-02-23T00:24:33.064Z,956.41
2017-02-23T00:25:42.267Z,956.41
2017-02-23T00:26:51.428Z,956.38
2017-02-23T00:28:00.606Z,956.43
2017-02-23T00:29:10.163Z,956.39
2017-02-23T00:30:19.722Z,956.44
2017-02-23T00:31:29.634Z,956.36
2017-02-23T00:32:39.210Z,956.39
2017-02-23T00:33:48.367Z,956.42
2017-02-23T00:34:57.931Z,956.36
2017-02-23T00:36:07.883Z,956.35
2017-02-23T00:37:18.216Z,956.37
2017-02-23T00:38:27.782Z,956.37
2017-02-23T00:39:36.959Z,956.44
2017-02-23T00:40:46.519Z,956.32
2017-02-23T00:41:55.721Z,956.45
2017-02-23T00:43:05.675Z,956.43
2017-02-23T00:44:15.239Z,956.44
2017-02-23T00:45:24.420Z,956.49
2017-02-23T00:46:34.369Z,956.4
2017-02-23T00:47:43.912Z,956.41
2017-02-23T00:48:53.800Z,956.39
2017-02-23T00:50:03.374Z,956.43
2017-02-23T00:51:12.138Z,956.32
2017-02-23T00:52:21.641Z,956.28
2017-02-23T00:53:31.217Z,956.33
2017-02-23T00:54:40.395Z,956.25
2017-02-23T00:55:49.942Z,956.38
2017-02-23T00:56:59.474Z,956.27
2017-02-23T00:58:08.974Z,956.34
2017-02-23T00:59:18.935Z,956.28
2017-02-23T01:00:29.307Z,956.18
2017-02-23T01:01:38.882Z,956.23
2017-02-23T01:02:48.454Z,956.3
2017-02-23T01:03:58.345Z,956.25
2017-02-23T01:05:07.525Z,956.21
2017-02-23T01:06:17.077Z,956.33
2017-02-23T01:07:26.970Z,956.26
2017-02-23T01:08:36.530Z,956.28
2017-02-23T01:09:45.695Z,956.23
2017-02-23T01:10:54.875Z,956.27
2017-02-23T01:12:04.432Z,956.19
2017-02-23T01:13:13.984Z,956.23
2017-02-23T01:14:23.546Z,956.17
2017-02-23T01:15:33.429Z,956.14
2017-02-23T01:16:42.980Z,956.15
2017-02-23T01:17:52.927Z,956.23
2017-02-23T01:19:02.483Z,956.16
2017-02-23T01:20:11.987Z,956.17
2017-02-23T01:21:21.748Z,956.24
2017-02-23T01:22:30.869Z,956.15
2017-02-23T01:23:40.784Z,956.26
2017-02-23T01:24:49.945Z,956.14
2017-02-23T01:25:59.117Z,956.15
2017-02-23T01:27:08.306Z,956.14
2017-02-23T01:28:17.473Z,956.16
2017-02-23T01:29:26.621Z,956.09
2017-02-23T01:30:36.898Z,956.09
2017-02-23T01:31:46.837Z,956.06
2017-02-23T01:32:57.102Z,955.99
2017-02-23T01:34:07.426Z,956
2017-02-23T01:35:17.718Z,955.98
2017-02-23T01:36:26.898Z,956.04
2017-02-23T01:37:36.167Z,956.1
2017-02-23T01:38:45.742Z,956.02
2017-02-23T01:39:55.691Z,955.98
2017-02-23T01:41:05.209Z,955.94
2017-02-23T01:42:14.751Z,956.03
2017-02-23T01:43:23.892Z,956
2017-02-23T01:44:34.218Z,956.07
2017-02-23T01:45:43.807Z,956.06
2017-02-23T01:46:53.750Z,956.05
2017-02-23T01:48:03.312Z,956.02
2017-02-23T01:49:12.881Z,955.98
2017-02-23T01:50:22.431Z,956
2017-02-23T01:51:31.995Z,955.93
2017-02-23T01:52:41.540Z,955.89
2017-02-23T01:53:50.651Z,955.91
2017-02-23T01:55:00.214Z,955.91
2017-02-23T01:56:09.787Z,956.05
2017-02-23T01:57:19.751Z,956.03
2017-02-23T01:58:29.310Z,955.9
2017-02-23T01:59:39.258Z,955.92
2017-02-23T02:00:48.055Z,955.91
2017-02-23T02:01:57.641Z,955.92
2017-02-23T02:03:07.199Z,955.75
2017-02-23T02:04:16.791Z,955.97
2017-02-23T02:05:26.746Z,955.86
2017-02-23T02:06:36.310Z,955.87
2017-02-23T02:07:45.471Z,955.86
2017-02-23T02:08:55.353Z,955.87
2017-02-23T02:10:04.535Z,955.92
2017-02-23T02:11:14.020Z,955.88
2017-02-23T02:12:23.926Z,955.85
2017-02-23T02:13:33.492Z,955.85
2017-02-23T02:14:42.676Z,955.85
2017-02-23T02:15:52.662Z,955.87
2017-02-23T02:17:03.042Z,955.82
2017-02-23T02:18:12.602Z,955.81
2017-02-23T02:19:21.772Z,955.79
2017-02-23T02:20:31.324Z,955.85
2017-02-23T02:21:40.845Z,955.8
2017-02-23T02:22:50.416Z,955.82
2017-02-23T02:24:00.356Z,955.72
2017-02-23T02:25:10.296Z,955.84
2017-02-23T02:26:19.092Z,955.76
2017-02-23T02:27:29.420Z,955.74
2017-02-23T02:28:39.406Z,955.7
2017-02-23T02:29:48.593Z,955.76
2017-02-23T02:30:57.385Z,955.77
2017-02-23T02:32:07.324Z,955.67
2017-02-23T02:33:17.236Z,955.7
2017-02-23T02:34:26.798Z,955.58
2017-02-23T02:35:35.574Z,955.62
2017-02-23T02:36:44.290Z,955.7
2017-02-23T02:37:53.424Z,955.63
2017-02-23T02:39:04.140Z,955.56
2017-02-23T02:40:13.267Z,955.6
2017-02-23T02:41:23.622Z,955.65
2017-02-23T02:42:33.162Z,955.66
2017-02-23T02:43:43.105Z,955.58
2017-02-23T02:44:53.053Z,955.59
2017-02-23T02:46:02.232Z,955.53
2017-02-23T02:47:12.197Z,955.59
2017-02-23T02:48:21.759Z,955.56
2017-02-23T02:49:31.340Z,955.51
2017-02-23T02:50:41.483Z,955.55
2017-02-23T02:51:51.832Z,955.45
2017-02-23T02:53:01.790Z,955.36
2017-02-23T02:54:11.729Z,955.39
2017-02-23T02:55:20.519Z,955.47
2017-02-23T02:56:30.074Z,955.46
2017-02-23T02:57:40.027Z,955.45
2017-02-23T02:58:50.760Z,955.46
2017-02-23T03:00:00.717Z,955.45
2017-02-23T03:01:09.902Z,955.39
2017-02-23T03:02:19.835Z,955.3
2017-02-23T03:03:29.351Z,955.37
2017-02-23T03:04:39.674Z,955.33
2017-02-23T03:05:48.866Z,955.37
2017-02-23T03:06:58.096Z,955.38
2017-02-23T03:08:07.266Z,955.34
2017-02-23T03:09:16.456Z,955.37
2017-02-23T03:10:26.029Z,955.27
2017-02-23T03:11:35.594Z,955.27
2017-02-23T03:12:45.155Z,955.45
2017-02-23T03:13:55.468Z,955.26
2017-02-23T03:15:05.021Z,955.18
2017-02-23T03:16:14.162Z,955.26
2017-02-23T03:17:24.110Z,955.22
2017-02-23T03:18:33.647Z,955.2
2017-02-23T03:19:42.755Z,955.35
2017-02-23T03:20:51.949Z,955.29
2017-02-23T03:22:02.289Z,955.21
2017-02-23T03:23:12.284Z,955.21
2017-02-23T03:24:21.460Z,955.22
2017-02-23T03:25:31.034Z,955.19
2017-02-23T03:26:41.396Z,955.18
2017-02-23T03:27:51.734Z,955.17
2017-02-23T03:29:01.690Z,955.17
2017-02-23T03:30:10.854Z,955.21
2017-02-23T03:31:20.429Z,955.08
2017-02-23T03:32:30.753Z,955.06
2017-02-23T03:33:40.656Z,955.07
2017-02-23T03:34:50.588Z,955.13
2017-02-23T03:35:59.789Z,955.05
2017-02-23T03:37:08.570Z,955.01
2017-02-23T03:38:17.697Z,955.04
2017-02-23T03:39:27.257Z,955.07
2017-02-23T03:40:36.920Z,955.08
2017-02-23T03:41:46.867Z,955.07
2017-02-23T03:42:56.427Z,955
2017-02-23T03:44:06.762Z,954.96
2017-02-23T03:45:16.743Z,954.98
2017-02-23T03:46:27.463Z,955.01
2017-02-23T03:47:37.419Z,954.98
2017-02-23T03:48:46.978Z,954.91
2017-02-23T03:49:56.548Z,955.06
2017-02-23T03:51:06.888Z,954.94
2017-02-23T03:52:16.451Z,954.93
2017-02-23T03:53:25.643Z,955
2017-02-23T03:54:35.976Z,955
2017-02-23T03:55:45.550Z,955.02
2017-02-23T03:56:55.107Z,954.92
2017-02-23T03:58:04.615Z,954.9
2017-02-23T03:59:13.806Z,954.95
2017-02-23T04:00:23.008Z,954.94
2017-02-23T04:01:32.185Z,954.94
2017-02-23T04:02:42.099Z,954.92
2017-02-23T04:03:51.695Z,954.88
2017-02-23T04:05:01.298Z,954.91
2017-02-23T04:06:10.098Z,954.91
2017-02-23T04:07:19.689Z,954.91
2017-02-23T04:08:29.636Z,955
2017-02-23T04:09:39.209Z,954.94
2017-02-23T04:10:48.776Z,954.81
2017-02-23T04:11:57.940Z,954.83
2017-02-23T04:13:08.286Z,954.89
2017-02-23T04:14:18.219Z,954.84
2017-02-23T04:15:28.107Z,954.9
2017-02-23T04:16:37.701Z,954.78
2017-02-23T04:17:46.455Z,954.77
2017-02-23T04:18:56.801Z,954.84
2017-02-23T04:20:07.100Z,954.73
2017-02-23T04:21:17.039Z,954.81
2017-02-23T04:22:26.980Z,954.81
2017-02-23T04:23:36.158Z,954.78
2017-02-23T04:24:45.752Z,954.8
2017-02-23T04:25:54.925Z,954.72
2017-02-23T04:27:04.092Z,954.69
2017-02-23T04:28:14.030Z,954.69
2017-02-23T04:29:23.983Z,954.75
2017-02-23T04:30:33.941Z,954.77
2017-02-23T04:31:44.282Z,954.68
2017-02-23T04:32:54.169Z,954.76
2017-02-23T04:34:03.733Z,954.62
2017-02-23T04:35:13.614Z,954.65
2017-02-23T04:36:23.184Z,954.63
2017-02-23T04:37:32.740Z,954.61
2017-02-23T04:38:42.694Z,954.55
2017-02-23T04:39:52.259Z,954.54
2017-02-23T04:41:02.595Z,954.59
2017-02-23T04:42:12.119Z,954.49
2017-02-23T04:43:21.313Z,954.52
2017-02-23T04:44:31.275Z,954.53
2017-02-23T04:45:40.831Z,954.58
2017-02-23T04:46:50.344Z,954.46
2017-02-23T04:47:59.921Z,954.51
2017-02-23T04:49:09.867Z,954.5
2017-02-23T04:50:18.631Z,954.5
2017-02-23T04:51:28.579Z,954.51
2017-02-23T04:52:38.088Z,954.55
2017-02-23T04:53:47.650Z,954.48
2017-02-23T04:54:57.219Z,954.52
2017-02-23T04:56:07.186Z,954.44
2017-02-23T04:57:16.334Z,954.48
2017-02-23T04:58:25.515Z,954.38
2017-02-23T04:59:34.689Z,954.38
2017-02-23T05:00:44.673Z,954.38
2017-02-23T05:01:53.860Z,954.37
2017-02-23T05:03:04.425Z,954.39
2017-02-23T05:04:14.372Z,954.33
2017-02-23T05:05:23.875Z,954.34
2017-02-23T05:06:33.373Z,954.32
2017-02-23T05:07:43.074Z,954.27
2017-02-23T05:08:53.039Z,954.27
2017-02-23T05:10:03.002Z,954.19
2017-02-23T05:11:12.187Z,954.17
2017-02-23T05:12:22.537Z,954.16
2017-02-23T05:13:32.491Z,954.13
2017-02-23T05:14:42.831Z,954.11
2017-02-23T05:15:53.165Z,954.11
2017-02-23T05:17:03.122Z,954.12
2017-02-23T05:18:12.308Z,954.15
2017-02-23T05:19:22.236Z,954
2017-02-23T05:20:32.040Z,954.06
2017-02-23T05:21:42.383Z,953.99
2017-02-23T05:22:51.952Z,954.01
2017-02-23T05:24:01.893Z,953.93
2017-02-23T05:25:11.441Z,954.01
2017-02-23T05:26:21.024Z,953.97
2017-02-23T05:27:31.355Z,953.98
2017-02-23T05:28:40.543Z,953.91
2017-02-23T05:29:50.496Z,953.89
2017-02-23T05:31:00.061Z,953.9
2017-02-23T05:32:10.350Z,953.87
2017-02-23T05:33:20.681Z,953.84
2017-02-23T05:34:30.246Z,953.78
2017-02-23T05:35:39.828Z,953.83
2017-02-23T05:36:49.772Z,953.76
2017-02-23T05:38:00.128Z,953.74
2017-02-23T05:39:09.698Z,953.74
2017-02-23T05:40:19.590Z,953.71
2017-02-23T05:41:29.920Z,953.8
2017-02-23T05:42:39.098Z,953.74
2017-02-23T05:43:48.667Z,953.78
2017-02-23T05:44:57.477Z,953.78
2017-02-23T05:46:07.406Z,953.73
2017-02-23T05:47:16.913Z,953.73
2017-02-23T05:48:26.865Z,953.59
2017-02-23T05:49:37.579Z,953.66
2017-02-23T05:50:47.946Z,953.67
2017-02-23T05:51:58.271Z,953.65
2017-02-23T05:53:07.822Z,953.63
2017-02-23T05:54:16.996Z,953.61
2017-02-23T05:55:26.933Z,953.6
2017-02-23T05:56:36.049Z,953.53
2017-02-23T05:57:45.242Z,953.52
2017-02-23T05:58:55.186Z,953.59
2017-02-23T06:00:04.674Z,953.54
2017-02-23T06:01:14.569Z,953.49
2017-02-23T06:02:24.465Z,953.53
2017-02-23T06:03:33.593Z,953.52
2017-02-23T06:04:43.151Z,953.62
2017-02-23T06:05:52.719Z,953.52
2017-02-23T06:07:02.290Z,953.5
2017-02-23T06:08:11.853Z,953.6
2017-02-23T06:09:20.630Z,953.58
2017-02-23T06:10:30.897Z,953.33
2017-02-23T06:11:40.026Z,953.5
2017-02-23T06:12:50.017Z,953.41
2017-02-23T06:13:59.961Z,953.42
2017-02-23T06:15:09.861Z,953.43
2017-02-23T06:16:19.779Z,953.46
2017-02-23T06:17:30.095Z,953.43
2017-02-23T06:18:39.250Z,953.43
2017-02-23T06:19:48.782Z,953.45
2017-02-23T06:20:58.665Z,953.47
2017-02-23T06:22:08.938Z,953.36
2017-02-23T06:23:18.102Z,953.41
2017-02-23T06:24:27.681Z,953.39
2017-02-23T06:25:37.248Z,953.39
2017-02-23T06:26:46.419Z,953.42
2017-02-23T06:27:55.980Z,953.35
2017-02-23T06:29:04.766Z,953.33
2017-02-23T06:30:15.089Z,953.34
2017-02-23T06:31:25.483Z,953.29
2017-02-23T06:32:34.690Z,953.36
2017-02-23T06:33:44.647Z,953.28
2017-02-23T06:34:54.614Z,953.37
2017-02-23T06:36:04.566Z,953.39
2017-02-23T06:37:13.367Z,953.4
2017-02-23T06:38:23.729Z,953.3
2017-02-23T06:39:32.929Z,953.34
2017-02-23T06:40:42.125Z,953.42
2017-02-23T06:41:51.289Z,953.39
2017-02-23T06:43:00.872Z,953.33
2017-02-23T06:44:10.458Z,953.24
2017-02-23T06:45:19.623Z,953.29
2017-02-23T06:46:29.586Z,953.3
2017-02-23T06:47:39.517Z,953.3
2017-02-23T06:48:49.476Z,953.28
2017-02-23T06:49:58.662Z,953.2
2017-02-23T06:51:08.243Z,953.22
2017-02-23T06:52:17.812Z,953.26
2017-02-23T06:53:27.758Z,953.27
2017-02-23T06:54:38.090Z,953.31
2017-02-23T06:55:47.298Z,953.25
2017-02-23T06:56:57.067Z,953.29
2017-02-23T06:58:06.240Z,953.24
2017-02-23T06:59:16.190Z,953.27
2017-02-23T07:00:26.545Z,953.2
2017-02-23T07:01:36.489Z,953.17
2017-02-23T07:02:46.053Z,953.27
2017-02-23T07:03:55.636Z,953.17
2017-02-23T07:05:05.203Z,953.18
2017-02-23T07:06:14.800Z,953.17
2017-02-23T07:07:24.758Z,953.12
2017-02-23T07:08:34.346Z,953.13
2017-02-23T07:09:43.932Z,953.11
2017-02-23T07:10:53.084Z,953.21
2017-02-23T07:12:03.073Z,953.11
2017-02-23T07:13:12.650Z,953.1
2017-02-23T07:14:22.229Z,953.06
2017-02-23T07:15:32.555Z,953.11
2017-02-23T07:16:42.486Z,953.12
2017-02-23T07:17:52.026Z,952.98
2017-02-23T07:19:02.298Z,953.04
2017-02-23T07:20:11.866Z,953.02
2017-02-23T07:21:21.450Z,953.08
2017-02-23T07:22:31.817Z,953.02
2017-02-23T07:23:41.750Z,953.02
2017-02-23T07:24:50.874Z,952.99
2017-02-23T07:26:01.237Z,952.87
2017-02-23T07:27:10.812Z,953.08
2017-02-23T07:28:20.399Z,953.03
2017-02-23T07:29:29.584Z,953.1
2017-02-23T07:30:39.163Z,953.08
2017-02-23T07:31:47.993Z,953.07
2017-02-23T07:32:57.888Z,953.08
2017-02-23T07:34:07.829Z,953.07
2017-02-23T07:35:17.347Z,953.05
2017-02-23T07:36:27.278Z,953.05
2017-02-23T07:37:36.405Z,953.12
2017-02-23T07:38:46.520Z,952.99
2017-02-23T07:39:56.106Z,953.01
2017-02-23T07:41:06.004Z,953.05
2017-02-23T07:42:15.968Z,952.97
2017-02-23T07:43:25.935Z,952.96
2017-02-23T07:44:36.247Z,952.95
2017-02-23T07:45:45.774Z,953
2017-02-23T07:46:56.117Z,953
2017-02-23T07:48:05.692Z,952.89
2017-02-23T07:49:14.871Z,952.91
2017-02-23T07:50:24.457Z,952.9
2017-02-23T07:51:34.035Z,952.89
2017-02-23T07:52:43.613Z,952.83
2017-02-23T07:53:53.568Z,952.81
2017-02-23T07:55:03.899Z,952.85
2017-02-23T07:56:13.865Z,952.8
2017-02-23T07:57:23.453Z,952.77
2017-02-23T07:58:32.625Z,952.82
2017-02-23T07:59:42.980Z,952.69
2017-02-23T08:00:53.304Z,952.73
2017-02-23T08:02:02.893Z,952.65
2017-02-23T08:03:11.674Z,952.59
2017-02-23T08:04:20.460Z,952.71
2017-02-23T08:05:30.036Z,952.62
2017-02-23T08:06:39.993Z,952.62
2017-02-23T08:07:49.930Z,952.63
2017-02-23T08:08:59.437Z,952.65
2017-02-23T08:10:09.032Z,952.6
2017-02-23T08:11:19.382Z,952.56
2017-02-23T08:12:28.547Z,952.6
2017-02-23T08:13:37.731Z,952.52
2017-02-23T08:14:47.282Z,952.52
2017-02-23T08:15:57.174Z,952.58
2017-02-23T08:17:07.133Z,952.51
2017-02-23T08:18:17.467Z,952.44
2017-02-23T08:19:27.051Z,952.48
2017-02-23T08:20:37.008Z,952.46
2017-02-23T08:21:46.382Z,952.41
2017-02-23T08:22:56.743Z,952.37
2017-02-23T08:24:05.906Z,952.39
2017-02-23T08:25:15.039Z,952.37
2017-02-23T08:26:24.587Z,952.3
2017-02-23T08:27:34.169Z,952.27
2017-02-23T08:28:43.749Z,952.31
2017-02-23T08:29:52.556Z,952.27
2017-02-23T08:31:01.725Z,952.28
2017-02-23T08:32:10.890Z,952.25
2017-02-23T08:33:19.980Z,952.29
2017-02-23T08:34:29.868Z,952.22
2017-02-23T08:35:39.436Z,952.23
2017-02-23T08:36:49.115Z,952.13
2017-02-23T08:37:58.691Z,952.12
2017-02-23T08:39:08.629Z,952.09
2017-02-23T08:40:18.603Z,952.02
2017-02-23T08:41:28.167Z,951.97
2017-02-23T08:42:37.720Z,952.01
2017-02-23T08:43:47.651Z,951.96
2017-02-23T08:44:57.934Z,951.92
2017-02-23T08:46:07.501Z,951.83
2017-02-23T08:47:17.053Z,951.89
2017-02-23T08:48:26.993Z,951.82
2017-02-23T08:49:36.955Z,951.85
2017-02-23T08:50:46.152Z,951.76
2017-02-23T08:51:56.135Z,951.78
2017-02-23T08:53:06.089Z,951.78
2017-02-23T08:54:15.611Z,951.73
2017-02-23T08:55:25.573Z,951.68
2017-02-23T08:56:35.564Z,951.69
2017-02-23T08:57:44.763Z,951.58
2017-02-23T08:58:54.727Z,951.53
2017-02-23T09:00:04.294Z,951.56
2017-02-23T09:01:13.469Z,951.52
2017-02-23T09:02:22.641Z,951.56
2017-02-23T09:03:32.205Z,951.48
2017-02-23T09:04:41.382Z,951.45
2017-02-23T09:05:51.716Z,951.41
2017-02-23T09:07:00.510Z,951.34
2017-02-23T09:08:09.692Z,951.32
2017-02-23T09:09:19.261Z,951.22
2017-02-23T09:10:28.838Z,951.18
2017-02-23T09:11:38.044Z,951.18
2017-02-23T09:12:47.993Z,951.23
2017-02-23T09:13:57.551Z,951.02
2017-02-23T09:15:07.845Z,951.1
2017-02-23T09:16:17.409Z,951.07
2017-02-23T09:17:26.192Z,951.04
2017-02-23T09:18:35.382Z,951.08
2017-02-23T09:19:45.045Z,951.15
2017-02-23T09:20:55.002Z,951.11
2017-02-23T09:22:04.541Z,951.04
2017-02-23T09:23:14.500Z,951.11
2017-02-23T09:24:24.457Z,951.05
2017-02-23T09:25:34.411Z,950.97
2017-02-23T09:26:43.617Z,950.82
2017-02-23T09:27:53.949Z,950.93
2017-02-23T09:29:03.923Z,950.83
2017-02-23T09:30:13.105Z,950.83
2017-02-23T09:31:23.065Z,950.73
2017-02-23T09:32:32.617Z,950.68
2017-02-23T09:33:42.824Z,950.65
2017-02-23T09:34:52.768Z,950.67
2017-02-23T09:36:01.934Z,950.66
2017-02-23T09:37:11.508Z,950.61
2017-02-23T09:38:21.071Z,950.61
2017-02-23T09:39:30.243Z,950.59
2017-02-23T09:40:40.230Z,950.66
2017-02-23T09:41:49.756Z,950.58
2017-02-23T09:42:58.940Z,950.69
2017-02-23T09:44:08.526Z,950.61
2017-02-23T09:45:18.501Z,950.6
2017-02-23T09:46:27.685Z,950.57
2017-02-23T09:47:37.261Z,950.49
2017-02-23T09:48:46.758Z,950.46
2017-02-23T09:49:55.584Z,950.38
2017-02-23T09:51:05.558Z,950.33
2017-02-23T09:52:15.122Z,950.36
2017-02-23T09:53:24.333Z,950.27
2017-02-23T09:54:34.295Z,950.34
2017-02-23T09:55:44.618Z,950.34
2017-02-23T09:56:54.309Z,950.31
2017-02-23T09:58:03.887Z,950.36
2017-02-23T09:59:13.781Z,950.35
2017-02-23T10:00:23.740Z,950.37
2017-02-23T10:01:33.685Z,950.35
2017-02-23T10:02:43.194Z,950.39
2017-02-23T10:03:53.213Z,950.39
2017-02-23T10:05:02.494Z,950.43
2017-02-23T10:06:12.082Z,950.22
2017-02-23T10:07:22.412Z,950.25
2017-02-23T10:08:32.340Z,950.28
2017-02-23T10:09:42.482Z,950.29
2017-02-23T10:10:52.036Z,950.34
2017-02-23T10:12:01.161Z,950.32
2017-02-23T10:13:09.960Z,950.36
2017-02-23T10:14:19.519Z,950.39
2017-02-23T10:15:29.103Z,950.28
2017-02-23T10:16:38.277Z,950.28
2017-02-23T10:17:47.076Z,950.18
2017-02-23T10:18:56.268Z,950.17
2017-02-23T10:20:05.853Z,950.16
2017-02-23T10:21:15.830Z,950.04
2017-02-23T10:22:24.618Z,950.04
2017-02-23T10:23:33.800Z,950.01
2017-02-23T10:24:44.171Z,949.96
2017-02-23T10:25:54.132Z,950.08
2017-02-23T10:27:03.685Z,950
2017-02-23T10:28:13.638Z,950.04
2017-02-23T10:29:23.594Z,950
2017-02-23T10:30:33.160Z,949.96
2017-02-23T10:31:43.016Z,949.96
2017-02-23T10:32:52.543Z,949.99
2017-02-23T10:34:02.509Z,949.92
2017-02-23T10:35:11.690Z,949.93
2017-02-23T10:36:21.600Z,949.91
2017-02-23T10:37:31.554Z,949.84
2017-02-23T10:38:41.904Z,949.8
2017-02-23T10:39:50.703Z,949.73
2017-02-23T10:41:01.054Z,949.63
2017-02-23T10:42:10.612Z,949.76
2017-02-23T10:43:20.552Z,949.73
2017-02-23T10:44:30.473Z,949.78
2017-02-23T10:45:39.653Z,949.65
2017-02-23T10:46:48.846Z,949.7
2017-02-23T10:47:57.680Z,949.58
2017-02-23T10:49:07.624Z,949.54
2017-02-23T10:50:16.810Z,949.46
2017-02-23T10:51:25.614Z,949.43
2017-02-23T10:52:35.183Z,949.44
2017-02-23T10:53:44.352Z,949.25
2017-02-23T10:54:53.919Z,949.21
2017-02-23T10:56:03.865Z,949.21
2017-02-23T10:57:13.071Z,949.1
2017-02-23T10:58:22.604Z,949.3
2017-02-23T10:59:32.565Z,949.25
2017-02-23T11:00:41.727Z,949.22
2017-02-23T11:01:51.255Z,949.19
2017-02-23T11:03:00.455Z,949.27
2017-02-23T11:04:10.814Z,949.19
2017-02-23T11:05:20.013Z,948.99
2017-02-23T11:06:29.567Z,948.97
2017-02-23T11:07:39.066Z,949.08
2017-02-23T11:08:49.350Z,949.08
2017-02-23T11:09:58.554Z,949.07
2017-02-23T11:11:08.515Z,949.35
2017-02-23T11:12:17.709Z,949.18
2017-02-23T11:13:27.676Z,949.2
2017-02-23T11:14:37.266Z,949.11
2017-02-23T11:15:46.839Z,949.61
2017-02-23T11:16:56.393Z,949.33
2017-02-23T11:18:05.977Z,949.07
2017-02-23T11:19:15.548Z,949.01
2017-02-23T11:20:25.055Z,949.03
2017-02-23T11:21:34.187Z,948.96
2017-02-23T11:22:43.738Z,948.99
2017-02-23T11:23:53.709Z,948.96
2017-02-23T11:25:03.700Z,949.12
2017-02-23T11:26:13.610Z,949.02
2017-02-23T11:27:22.426Z,948.91
2017-02-23T11:28:31.988Z,948.79
2017-02-23T11:29:42.259Z,948.72
2017-02-23T11:30:50.971Z,948.65
2017-02-23T11:32:00.098Z,948.69
2017-02-23T11:33:10.059Z,948.59
2017-02-23T11:34:19.573Z,948.65
2017-02-23T11:35:28.770Z,948.63
2017-02-23T11:36:38.279Z,948.67
2017-02-23T11:37:47.860Z,948.61
2017-02-23T11:38:57.824Z,948.5
2017-02-23T11:40:07.017Z,948.53
2017-02-23T11:41:16.604Z,948.51
2017-02-23T11:42:25.425Z,948.5
2017-02-23T11:43:34.984Z,948.28
2017-02-23T11:44:44.549Z,948.4
2017-02-23T11:45:54.518Z,948.33
2017-02-23T11:47:04.463Z,948.25
2017-02-23T11:48:14.059Z,948.31
2017-02-23T11:49:23.628Z,948.24
2017-02-23T11:50:33.590Z,948.24
2017-02-23T11:51:43.558Z,948.21
2017-02-23T11:52:52.772Z,948.26
2017-02-23T11:54:02.322Z,948.21
2017-02-23T11:55:12.301Z,948.19
2017-02-23T11:56:22.958Z,948.11
2017-02-23T11:57:32.919Z,948.1
2017-02-23T11:58:42.499Z,948.07
2017-02-23T11:59:51.669Z,947.98
2017-02-23T12:01:00.854Z,947.91
2017-02-23T12:02:10.798Z,947.89
2017-02-23T12:03:19.635Z,947.9
2017-02-23T12:04:29.133Z,947.85
2017-02-23T12:05:38.706Z,947.88
2017-02-23T12:06:48.270Z,947.86
2017-02-23T12:07:57.844Z,947.84
2017-02-23T12:09:07.827Z,947.87
2017-02-23T12:10:17.389Z,947.87
2017-02-23T12:11:27.939Z,947.95
2017-02-23T12:12:37.117Z,947.8
2017-02-23T12:13:46.992Z,947.74
2017-02-23T12:14:56.512Z,947.7
2017-02-23T12:16:06.459Z,947.64
2017-02-23T12:17:16.012Z,947.7
2017-02-23T12:18:24.795Z,947.68
2017-02-23T12:19:33.992Z,947.71
2017-02-23T12:20:44.446Z,947.55
2017-02-23T12:21:54.812Z,947.35
2017-02-23T12:23:03.998Z,947.51
2017-02-23T12:24:13.196Z,947.29
2017-02-23T12:25:22.414Z,947.38
2017-02-23T12:26:31.592Z,947.26
2017-02-23T12:27:41.947Z,947.13
2017-02-23T12:28:51.143Z,947.2
2017-02-23T12:30:00.307Z,947.24
2017-02-23T12:31:09.424Z,947.24
2017-02-23T12:32:18.221Z,947.23
2017-02-23T12:33:28.181Z,947.08
2017-02-23T12:34:37.736Z,947.08
2017-02-23T12:35:46.920Z,947.04
2017-02-23T12:36:56.494Z,946.95
2017-02-23T12:38:07.262Z,946.98
2017-02-23T12:39:16.833Z,946.98
2017-02-23T12:40:27.174Z,946.9
2017-02-23T12:41:36.750Z,946.81
2017-02-23T12:42:46.324Z,946.69
2017-02-23T12:43:55.880Z,946.66
2017-02-23T12:45:05.058Z,946.49
2017-02-23T12:46:14.205Z,946.32
2017-02-23T12:47:23.802Z,946.28
2017-02-23T12:48:33.759Z,946.27
2017-02-23T12:49:44.117Z,946.3
2017-02-23T12:50:54.222Z,946.15
2017-02-23T12:52:04.173Z,946.15
2017-02-23T12:53:13.739Z,946.25
2017-02-23T12:54:23.316Z,946.23
2017-02-23T12:55:33.431Z,946.17
2017-02-23T12:56:42.936Z,946.09
2017-02-23T12:57:52.494Z,946.05
2017-02-23T12:59:02.468Z,946.04
2017-02-23T13:00:12.357Z,946.19
2017-02-23T13:01:22.312Z,946.01
2017-02-23T13:02:31.511Z,945.95
2017-02-23T13:03:41.469Z,945.84
2017-02-23T13:04:51.052Z,945.68
2017-02-23T13:06:01.021Z,945.59
2017-02-23T13:07:10.901Z,945.72
2017-02-23T13:08:20.867Z,945.63
2017-02-23T13:09:30.440Z,945.79
2017-02-23T13:10:39.554Z,945.74
2017-02-23T13:11:49.110Z,945.64
2017-02-23T13:12:59.461Z,945.61
2017-02-23T13:14:09.005Z,945.59
2017-02-23T13:15:18.485Z,945.58
2017-02-23T13:16:27.228Z,945.5
2017-02-23T13:17:36.441Z,945.56
2017-02-23T13:18:45.630Z,945.54
2017-02-23T13:19:54.797Z,945.61
2017-02-23T13:21:04.744Z,945.6
2017-02-23T13:22:14.701Z,945.52
2017-02-23T13:23:24.265Z,945.36
2017-02-23T13:24:33.772Z,945.37
2017-02-23T13:25:43.782Z,945.31
2017-02-23T13:26:53.277Z,945.28
2017-02-23T13:28:03.216Z,945.27
2017-02-23T13:29:13.157Z,945.26
2017-02-23T13:30:22.733Z,945.25
2017-02-23T13:31:33.073Z,945.14
2017-02-23T13:32:43.031Z,945.14
2017-02-23T13:33:52.605Z,945.19
2017-02-23T13:35:02.576Z,945.04
2017-02-23T13:36:12.139Z,945.07
2017-02-23T13:37:22.084Z,944.96
2017-02-23T13:38:31.653Z,945.09
2017-02-23T13:39:40.865Z,945.12
2017-02-23T13:40:50.828Z,945.01
2017-02-23T13:41:59.586Z,944.88
2017-02-23T13:43:09.925Z,945.01
2017-02-23T13:44:19.881Z,944.93
2017-02-23T13:45:29.063Z,944.93
2017-02-23T13:46:39.039Z,944.8
2017-02-23T13:47:49.791Z,944.86
2017-02-23T13:48:59.356Z,944.93
2017-02-23T13:50:09.263Z,944.79
2017-02-23T13:51:19.221Z,944.84
2017-02-23T13:52:29.185Z,944.82
2017-02-23T13:53:39.067Z,944.62
2017-02-23T13:54:48.589Z,944.73
2017-02-23T13:55:58.136Z,944.65
2017-02-23T13:57:07.261Z,944.56
2017-02-23T13:58:16.443Z,944.41
2017-02-23T13:59:25.620Z,944.48
2017-02-23T14:00:34.830Z,944.35
2017-02-23T21:21:12.582Z,944.74
2017-02-23T21:22:22.539Z,944.84
2017-02-23T21:23:32.116Z,944.99
2017-02-23T21:24:42.073Z,944.82
2017-02-23T21:25:52.035Z,944.82
2017-02-23T21:27:01.552Z,944.71
2017-02-23T21:28:11.830Z,944.86
2017-02-23T21:29:21.726Z,944.86
2017-02-23T21:30:31.289Z,944.85
2017-02-23T21:31:41.577Z,944.95
2017-02-23T21:32:51.168Z,944.95
2017-02-23T21:34:01.158Z,945.08
2017-02-23T21:35:11.139Z,945.15
2017-02-23T21:36:20.713Z,944.96
2017-02-23T21:37:30.274Z,945.05
2017-02-23T21:38:40.642Z,944.81
2017-02-23T21:39:49.826Z,944.76
2017-02-23T21:40:59.008Z,944.77
2017-02-23T21:42:09.336Z,944.89
2017-02-23T21:43:19.278Z,944.93
2017-02-23T21:44:28.085Z,945.1
2017-02-23T21:45:38.029Z,945.22
2017-02-23T21:46:48.357Z,945.34
2017-02-23T21:47:57.861Z,945.19
2017-02-23T21:49:07.047Z,945.28
2017-02-23T21:50:16.241Z,945.19
2017-02-23T21:51:26.219Z,945.31